Time,TemperatureF,DewpointF,PressureIn,WindDirection,WindDirectionDegrees,WindSpeedMPH,WindSpeedGustMPH,Humidity,HourlyPrecipIn,Conditions,Clouds,dailyrainin,SoftwareType,DateUTC
2013-04-19 00:05:00,49.0,47.9,30.11,WSW,243,4.0,8.0,96,0.00,,,0.00,Wunderground v.1.15,2013-04-19 04:05:00,
2013-04-19 00:10:00,49.0,47.9,30.12,WSW,255,4.0,4.0,96,0.00,,,0.00,Wunderground v.1.15,2013-04-19 04:10:00,
2013-04-19 00:15:00,49.2,48.4,30.11,SW,227,4.0,7.0,97,0.00,,,0.00,Wunderground v.1.15,2013-04-19 04:15:00,
2013-04-19 00:20:00,49.1,48.0,30.11,SW,220,5.0,5.0,96,0.00,,,0.00,Wunderground v.1.15,2013-04-19 04:20:00,
2013-04-19 00:25:00,49.1,48.3,30.11,SW,229,4.0,6.0,97,0.00,,,0.00,Wunderground v.1.15,2013-04-19 04:25:00,
2013-04-19 00:30:00,49.3,48.5,30.11,West,279,4.0,4.0,97,0.00,,,0.00,Wunderground v.1.15,2013-04-19 04:30:00,
2013-04-19 00:35:00,49.5,48.7,30.10,WNW,293,5.0,5.0,97,0.00,,,0.00,Wunderground v.1.15,2013-04-19 04:35:00,
2013-04-19 00:40:00,49.9,49.4,30.10,WNW,292,5.0,5.0,98,0.00,,,0.00,Wunderground v.1.15,2013-04-19 04:40:00,
2013-04-19 00:45:00,49.5,48.7,30.10,WSW,252,6.0,12.0,97,0.00,,,0.00,Wunderground v.1.15,2013-04-19 04:45:00,
2013-04-19 00:55:00,49.7,49.2,30.09,West,270,6.0,9.0,98,0.00,,,0.00,Wunderground v.1.15,2013-04-19 04:55:00,
2013-04-19 01:00:00,49.9,49.4,30.08,SW,234,4.0,8.0,98,0.00,,,0.00,Wunderground v.1.15,2013-04-19 05:00:00,
2013-04-19 01:05:00,49.7,49.2,30.08,WSW,251,4.0,8.0,98,0.00,,,0.00,Wunderground v.1.15,2013-04-19 05:05:00,
2013-04-19 01:15:00,49.9,49.4,30.07,NW,304,4.0,8.0,98,0.00,,,0.00,Wunderground v.1.15,2013-04-19 05:15:00,
2013-04-19 01:20:00,50.1,49.8,30.07,West,277,5.0,5.0,99,0.00,,,0.00,Wunderground v.1.15,2013-04-19 05:20:00,
2013-04-19 01:25:00,50.1,49.8,30.06,SW,223,5.0,8.0,99,0.00,,,0.00,Wunderground v.1.15,2013-04-19 05:25:00,
2013-04-19 01:30:00,51.4,51.1,30.06,SW,236,6.0,8.0,99,0.00,,,0.00,Wunderground v.1.15,2013-04-19 05:30:00,
2013-04-19 01:35:00,51.8,51.5,30.06,SW,232,8.0,8.0,99,0.00,,,0.00,Wunderground v.1.15,2013-04-19 05:35:00,
2013-04-19 01:40:00,51.7,51.4,30.06,SW,232,7.0,10.0,99,0.00,,,0.00,Wunderground v.1.15,2013-04-19 05:40:00,
2013-04-19 01:50:00,51.8,51.5,30.06,SW,236,7.0,7.0,99,0.00,,,0.00,Wunderground v.1.15,2013-04-19 05:50:00,
2013-04-19 02:00:00,50.9,50.6,30.05,West,281,6.0,6.0,99,0.00,,,0.00,Wunderground v.1.15,2013-04-19 06:00:00,
2013-04-19 02:05:00,51.3,51.0,30.05,West,271,5.0,8.0,99,0.00,,,0.00,Wunderground v.1.15,2013-04-19 06:05:00,
2013-04-19 02:10:00,51.6,51.3,30.05,WSW,256,5.0,8.0,99,0.00,,,0.00,Wunderground v.1.15,2013-04-19 06:10:00,
2013-04-19 02:15:00,52.2,52.2,30.05,West,274,5.0,8.0,100,0.00,,,0.00,Wunderground v.1.15,2013-04-19 06:15:00,
2013-04-19 02:20:00,52.2,52.2,30.05,WSW,247,5.0,5.0,100,0.00,,,0.00,Wunderground v.1.15,2013-04-19 06:20:00,
2013-04-19 02:25:00,52.2,52.2,30.05,SW,222,4.0,6.0,100,0.00,,,0.00,Wunderground v.1.15,2013-04-19 06:25:00,
2013-04-19 02:30:00,52.1,51.8,30.05,SW,230,4.0,8.0,99,0.00,,,0.00,Wunderground v.1.15,2013-04-19 06:30:00,
2013-04-19 02:40:00,52.2,52.2,30.04,WSW,252,4.0,8.0,100,0.00,,,0.00,Wunderground v.1.15,2013-04-19 06:40:00,
2013-04-19 02:45:00,52.5,52.5,30.04,West,281,3.0,8.0,100,0.00,,,0.00,Wunderground v.1.15,2013-04-19 06:45:00,
2013-04-19 02:50:00,52.6,52.6,30.04,WNW,294,3.0,8.0,100,0.00,,,0.00,Wunderground v.1.15,2013-04-19 06:50:00,
2013-04-19 02:55:00,52.6,52.6,30.04,West,264,3.0,8.0,100,0.00,,,0.00,Wunderground v.1.15,2013-04-19 06:55:00,
2013-04-19 03:00:00,52.5,52.5,30.03,WNW,294,4.0,4.0,100,0.00,,,0.00,Wunderground v.1.15,2013-04-19 07:00:00,
2013-04-19 03:05:00,52.5,52.5,30.03,NW,307,4.0,8.0,100,0.00,,,0.00,Wunderground v.1.15,2013-04-19 07:05:00,
2013-04-19 03:10:00,52.4,52.4,30.03,West,273,5.0,5.0,100,0.00,,,0.00,Wunderground v.1.15,2013-04-19 07:10:00,
2013-04-19 03:20:00,52.4,52.4,30.03,WSW,242,4.0,8.0,100,0.00,,,0.00,Wunderground v.1.15,2013-04-19 07:20:00,
2013-04-19 03:25:00,52.3,52.3,30.02,WNW,292,4.0,8.0,100,0.00,,,0.00,Wunderground v.1.15,2013-04-19 07:25:00,
2013-04-19 03:30:00,52.4,52.4,30.03,WNW,298,4.0,4.0,100,0.00,,,0.00,Wunderground v.1.15,2013-04-19 07:30:00,
2013-04-19 03:35:00,52.6,52.6,30.02,WNW,293,3.0,6.0,100,0.00,,,0.00,Wunderground v.1.15,2013-04-19 07:35:00,
2013-04-19 03:40:00,52.7,52.7,30.02,WNW,300,4.0,4.0,100,0.00,,,0.00,Wunderground v.1.15,2013-04-19 07:40:00,
2013-04-19 03:45:00,52.6,52.6,30.01,SW,235,3.0,8.0,100,0.00,,,0.00,Wunderground v.1.15,2013-04-19 07:45:00,
2013-04-19 03:50:00,52.8,52.8,30.01,West,278,3.0,8.0,100,0.00,,,0.00,Wunderground v.1.15,2013-04-19 07:50:00,
2013-04-19 04:00:00,52.6,52.6,30.00,SW,223,3.0,8.0,100,0.00,,,0.00,Wunderground v.1.15,2013-04-19 08:00:00,
2013-04-19 04:05:00,52.4,52.4,30.00,SW,227,2.0,8.0,100,0.00,,,0.00,Wunderground v.1.15,2013-04-19 08:05:00,
2013-04-19 04:10:00,52.4,52.4,29.99,SSW,209,2.0,2.0,100,0.00,,,0.00,Wunderground v.1.15,2013-04-19 08:10:00,
2013-04-19 04:15:00,52.6,52.6,29.99,SW,219,3.0,3.0,100,0.00,,,0.00,Wunderground v.1.15,2013-04-19 08:15:00,
2013-04-19 04:20:00,52.5,52.5,29.99,SSW,205,3.0,8.0,100,0.00,,,0.00,Wunderground v.1.15,2013-04-19 08:20:00,
2013-04-19 04:25:00,52.5,52.5,29.98,SSW,209,3.0,8.0,100,0.00,,,0.00,Wunderground v.1.15,2013-04-19 08:25:00,
2013-04-19 04:30:00,52.6,52.6,29.99,West,266,3.0,3.0,100,0.00,,,0.00,Wunderground v.1.15,2013-04-19 08:30:00,
2013-04-19 04:35:00,52.8,52.8,29.99,WSW,254,4.0,5.0,100,0.00,,,0.00,Wunderground v.1.15,2013-04-19 08:35:00,
2013-04-19 04:40:00,53.2,53.2,29.99,SW,233,5.0,8.0,100,0.00,,,0.00,Wunderground v.1.15,2013-04-19 08:40:00,
2013-04-19 04:50:00,53.7,53.7,29.99,SW,229,5.0,5.0,100,0.00,,,0.00,Wunderground v.1.15,2013-04-19 08:50:00,
2013-04-19 04:55:00,53.9,53.9,29.99,WSW,241,6.0,9.0,100,0.00,,,0.00,Wunderground v.1.15,2013-04-19 08:55:00,
2013-04-19 05:00:00,53.9,53.9,29.99,WSW,248,6.0,6.0,100,0.00,,,0.00,Wunderground v.1.15,2013-04-19 09:00:00,
2013-04-19 05:05:00,54.0,54.0,29.99,West,276,5.0,8.0,100,0.00,,,0.00,Wunderground v.1.15,2013-04-19 09:05:00,
2013-04-19 05:10:00,54.2,54.2,29.98,WNW,298,5.0,8.0,100,0.00,,,0.00,Wunderground v.1.15,2013-04-19 09:10:00,
2013-04-19 05:15:00,54.3,54.3,29.99,WSW,238,5.0,8.0,100,0.00,,,0.00,Wunderground v.1.15,2013-04-19 09:15:00,
2013-04-19 05:20:00,54.3,54.3,29.99,West,277,5.0,8.0,100,0.00,,,0.00,Wunderground v.1.15,2013-04-19 09:20:00,
2013-04-19 05:25:00,54.3,54.3,29.99,South,188,5.0,8.0,100,0.00,,,0.00,Wunderground v.1.15,2013-04-19 09:25:00,
2013-04-19 05:30:00,54.2,54.2,29.99,WNW,301,5.0,5.0,100,0.00,,,0.00,Wunderground v.1.15,2013-04-19 09:30:00,
2013-04-19 05:40:00,54.1,54.1,29.98,West,263,4.0,8.0,100,0.00,,,0.00,Wunderground v.1.15,2013-04-19 09:40:00,
2013-04-19 05:50:00,54.2,54.2,29.98,West,278,4.0,4.0,100,0.00,,,0.00,Wunderground v.1.15,2013-04-19 09:50:00,
2013-04-19 05:55:00,54.2,54.2,29.98,West,269,4.0,8.0,100,0.00,,,0.00,Wunderground v.1.15,2013-04-19 09:55:00,
2013-04-19 06:00:00,54.3,54.3,29.97,West,281,4.0,8.0,100,0.00,,,0.00,Wunderground v.1.15,2013-04-19 10:00:00,
2013-04-19 06:05:00,54.4,54.4,29.97,West,265,4.0,8.0,100,0.00,,,0.00,Wunderground v.1.15,2013-04-19 10:05:00,
2013-04-19 06:10:00,54.5,54.5,29.97,WSW,242,4.0,8.0,100,0.00,,,0.00,Wunderground v.1.15,2013-04-19 10:10:00,
2013-04-19 06:15:00,54.5,54.5,29.97,WSW,246,4.0,8.0,100,0.00,,,0.00,Wunderground v.1.15,2013-04-19 10:15:00,
2013-04-19 06:20:00,54.6,54.6,29.97,WNW,284,4.0,8.0,100,0.00,,,0.00,Wunderground v.1.15,2013-04-19 10:20:00,
2013-04-19 06:30:00,54.7,54.7,29.97,NW,304,4.0,8.0,100,0.00,,,0.00,Wunderground v.1.15,2013-04-19 10:30:00,
2013-04-19 06:35:00,54.8,54.8,29.97,SW,225,4.0,10.0,100,0.00,,,0.00,Wunderground v.1.15,2013-04-19 10:35:00,
2013-04-19 06:40:00,55.0,55.0,29.97,SW,225,5.0,5.0,100,0.00,,,0.00,Wunderground v.1.15,2013-04-19 10:40:00,
2013-04-19 06:45:00,55.1,55.1,29.97,WSW,244,5.0,8.0,100,0.00,,,0.00,Wunderground v.1.15,2013-04-19 10:45:00,
2013-04-19 06:50:00,55.1,55.1,29.97,WSW,242,3.0,3.0,100,0.00,,,0.00,Wunderground v.1.15,2013-04-19 10:50:00,
2013-04-19 06:55:00,55.2,55.2,29.97,SW,217,3.0,5.0,100,0.00,,,0.00,Wunderground v.1.15,2013-04-19 10:55:00,
2013-04-19 07:00:00,55.2,55.2,29.97,WNW,288,4.0,8.0,100,0.00,,,0.00,Wunderground v.1.15,2013-04-19 11:00:00,
2013-04-19 07:10:00,55.3,55.3,29.97,WNW,283,4.0,4.0,100,0.00,,,0.00,Wunderground v.1.15,2013-04-19 11:10:00,
2013-04-19 07:15:00,55.4,55.4,29.97,WSW,254,3.0,8.0,100,0.00,,,0.00,Wunderground v.1.15,2013-04-19 11:15:00,
2013-04-19 07:20:00,55.4,55.4,29.97,SW,234,3.0,3.0,100,0.00,,,0.00,Wunderground v.1.15,2013-04-19 11:20:00,
2013-04-19 07:25:00,55.5,55.5,29.98,WNW,303,4.0,4.0,100,0.00,,,0.00,Wunderground v.1.15,2013-04-19 11:25:00,
2013-04-19 07:30:00,55.5,55.5,29.98,West,259,4.0,4.0,100,0.00,,,0.00,Wunderground v.1.15,2013-04-19 11:30:00,
2013-04-19 07:35:00,55.6,55.6,29.98,West,281,4.0,8.0,100,0.00,,,0.00,Wunderground v.1.15,2013-04-19 11:35:00,
2013-04-19 07:40:00,55.6,55.6,29.98,WSW,238,4.0,8.0,100,0.00,,,0.01,Wunderground v.1.15,2013-04-19 11:40:00,
2013-04-19 07:45:00,55.6,55.6,29.98,WSW,237,4.0,8.0,100,0.00,,,0.01,Wunderground v.1.15,2013-04-19 11:45:00,
2013-04-19 07:55:00,55.8,55.8,29.98,WNW,298,4.0,6.0,100,0.00,,,0.01,Wunderground v.1.15,2013-04-19 11:55:00,
2013-04-19 08:00:00,55.9,55.9,29.98,WSW,257,4.0,4.0,100,0.00,,,0.01,Wunderground v.1.15,2013-04-19 12:00:00,
2013-04-19 08:05:00,56.0,56.0,29.98,West,259,4.0,8.0,100,0.00,,,0.01,Wunderground v.1.15,2013-04-19 12:05:00,
2013-04-19 08:10:00,56.0,56.0,29.97,WNW,292,3.0,8.0,100,0.00,,,0.01,Wunderground v.1.15,2013-04-19 12:10:00,
2013-04-19 08:15:00,56.2,56.2,29.97,SW,222,4.0,8.0,100,0.00,,,0.01,Wunderground v.1.15,2013-04-19 12:15:00,
2013-04-19 08:20:00,56.2,56.2,29.96,West,277,4.0,4.0,100,0.00,,,0.01,Wunderground v.1.15,2013-04-19 12:20:00,
2013-04-19 08:25:00,56.2,56.2,29.96,West,280,2.0,8.0,100,0.00,,,0.01,Wunderground v.1.15,2013-04-19 12:25:00,
2013-04-19 08:35:00,56.6,56.6,29.95,NW,306,4.0,8.0,100,0.00,,,0.01,Wunderground v.1.15,2013-04-19 12:35:00,
2013-04-19 08:45:00,56.9,56.9,29.94,WSW,251,4.0,8.0,100,0.00,,,0.01,Wunderground v.1.15,2013-04-19 12:45:00,
2013-04-19 08:50:00,57.0,57.0,29.94,WSW,242,5.0,5.0,100,0.00,,,0.01,Wunderground v.1.15,2013-04-19 12:50:00,
2013-04-19 08:55:00,57.1,57.1,29.95,SW,227,5.0,10.0,100,0.00,,,0.01,Wunderground v.1.15,2013-04-19 12:55:00,
2013-04-19 09:00:00,57.2,57.2,29.94,West,269,6.0,6.0,100,0.00,,,0.01,Wunderground v.1.15,2013-04-19 13:00:00,
2013-04-19 09:05:00,57.3,57.3,29.94,WNW,286,6.0,8.0,100,0.00,,,0.01,Wunderground v.1.15,2013-04-19 13:05:00,
2013-04-19 09:10:00,57.5,57.5,29.94,West,271,6.0,6.0,100,0.00,,,0.01,Wunderground v.1.15,2013-04-19 13:10:00,
2013-04-19 09:15:00,57.6,57.6,29.94,WSW,244,5.0,8.0,100,0.00,,,0.01,Wunderground v.1.15,2013-04-19 13:15:00,
2013-04-19 09:25:00,57.7,57.7,29.94,WNW,299,6.0,6.0,100,0.00,,,0.01,Wunderground v.1.15,2013-04-19 13:25:00,
2013-04-19 09:30:00,57.8,57.8,29.94,WNW,292,5.0,5.0,100,0.00,,,0.01,Wunderground v.1.15,2013-04-19 13:30:00,
2013-04-19 09:35:00,57.9,57.9,29.94,WNW,296,5.0,6.0,100,0.00,,,0.01,Wunderground v.1.15,2013-04-19 13:35:00,
2013-04-19 09:40:00,58.0,58.0,29.94,West,275,4.0,8.0,100,0.00,,,0.01,Wunderground v.1.15,2013-04-19 13:40:00,
2013-04-19 09:45:00,58.2,58.2,29.93,SW,226,5.0,8.0,100,0.00,,,0.01,Wunderground v.1.15,2013-04-19 13:45:00,
2013-04-19 09:50:00,58.4,58.4,29.93,SW,229,5.0,13.0,100,0.00,,,0.01,Wunderground v.1.15,2013-04-19 13:50:00,
2013-04-19 09:55:00,58.6,58.6,29.93,West,259,5.0,13.0,100,0.00,,,0.01,Wunderground v.1.15,2013-04-19 13:55:00,
2013-04-19 10:00:00,58.7,58.7,29.93,West,265,5.0,5.0,100,0.00,,,0.01,Wunderground v.1.15,2013-04-19 14:00:00,
2013-04-19 10:10:00,59.1,59.1,29.92,WNW,289,6.0,6.0,100,0.00,,,0.01,Wunderground v.1.15,2013-04-19 14:10:00,
2013-04-19 10:15:00,59.2,58.9,29.92,WSW,246,6.0,8.0,99,0.00,,,0.01,Wunderground v.1.15,2013-04-19 14:15:00,
2013-04-19 10:20:00,59.3,59.0,29.92,SSW,213,6.0,9.0,99,0.00,,,0.01,Wunderground v.1.15,2013-04-19 14:20:00,
2013-04-19 10:25:00,59.5,58.9,29.92,WNW,288,6.0,9.0,98,0.00,,,0.01,Wunderground v.1.15,2013-04-19 14:25:00,
2013-04-19 10:30:00,59.8,59.2,29.91,SW,236,7.0,7.0,98,0.00,,,0.01,Wunderground v.1.15,2013-04-19 14:30:00,
2013-04-19 10:35:00,60.2,59.3,29.91,SW,232,7.0,8.0,97,0.00,,,0.01,Wunderground v.1.15,2013-04-19 14:35:00,
2013-04-19 10:40:00,60.5,59.4,29.90,SW,234,7.0,9.0,96,0.00,,,0.01,Wunderground v.1.15,2013-04-19 14:40:00,
2013-04-19 10:45:00,60.9,59.5,29.90,WNW,292,7.0,9.0,95,0.00,,,0.01,Wunderground v.1.15,2013-04-19 14:45:00,
2013-04-19 10:55:00,61.4,59.4,29.90,West,272,8.0,8.0,93,0.00,,,0.01,Wunderground v.1.15,2013-04-19 14:55:00,
2013-04-19 11:05:00,61.7,59.7,29.89,WSW,240,7.0,8.0,93,0.00,,,0.01,Wunderground v.1.15,2013-04-19 15:05:00,
2013-04-19 11:10:00,62.1,59.7,29.89,WSW,257,9.0,12.0,92,0.00,,,0.01,Wunderground v.1.15,2013-04-19 15:10:00,
2013-04-19 11:15:00,62.3,59.9,29.88,WSW,246,9.0,12.0,92,0.00,,,0.01,Wunderground v.1.15,2013-04-19 15:15:00,
2013-04-19 11:20:00,62.8,60.1,29.89,WNW,284,8.0,8.0,91,0.00,,,0.01,Wunderground v.1.15,2013-04-19 15:20:00,
2013-04-19 11:25:00,62.9,59.9,29.88,West,261,8.0,8.0,90,0.00,,,0.01,Wunderground v.1.15,2013-04-19 15:25:00,
2013-04-19 11:30:00,63.1,60.1,29.88,WNW,303,7.0,7.0,90,0.00,,,0.01,Wunderground v.1.15,2013-04-19 15:30:00,
2013-04-19 11:35:00,63.1,59.8,29.88,West,279,7.0,8.0,89,0.00,,,0.01,Wunderground v.1.15,2013-04-19 15:35:00,
2013-04-19 11:45:00,63.4,60.1,29.88,SW,236,7.0,13.0,89,0.00,,,0.01,Wunderground v.1.15,2013-04-19 15:45:00,
2013-04-19 11:50:00,63.8,60.5,29.88,SW,220,8.0,15.0,89,0.00,,,0.01,Wunderground v.1.15,2013-04-19 15:50:00,
2013-04-19 11:55:00,63.9,60.6,29.88,WSW,242,8.0,15.0,89,0.00,,,0.01,Wunderground v.1.15,2013-04-19 15:55:00,
2013-04-19 12:00:00,64.0,60.4,29.87,SSW,213,6.0,8.0,88,0.00,,,0.01,Wunderground v.1.15,2013-04-19 16:00:00,
2013-04-19 12:05:00,63.9,60.3,29.86,WNW,295,6.0,8.0,88,0.00,,,0.01,Wunderground v.1.15,2013-04-19 16:05:00,
2013-04-19 12:10:00,63.9,60.3,29.86,WSW,246,6.0,8.0,88,0.00,,,0.01,Wunderground v.1.15,2013-04-19 16:10:00,
2013-04-19 12:15:00,63.9,60.3,29.86,SW,234,5.0,23.0,88,0.00,,,0.01,Wunderground v.1.15,2013-04-19 16:15:00,
2013-04-19 12:25:00,63.5,60.2,29.86,NW,304,7.0,8.0,89,0.00,,,0.01,Wunderground v.1.15,2013-04-19 16:25:00,
2013-04-19 12:30:00,63.6,60.0,29.85,SW,229,6.0,6.0,88,0.00,,,0.01,Wunderground v.1.15,2013-04-19 16:30:00,
2013-04-19 12:35:00,63.9,60.6,29.85,WSW,244,6.0,8.0,89,0.00,,,0.01,Wunderground v.1.15,2013-04-19 16:35:00,
2013-04-19 12:40:00,64.2,60.6,29.84,SW,232,8.0,12.0,88,0.00,,,0.01,Wunderground v.1.15,2013-04-19 16:40:00,
2013-04-19 12:45:00,64.5,60.5,29.84,SW,227,8.0,12.0,87,0.00,,,0.01,Wunderground v.1.15,2013-04-19 16:45:00,
2013-04-19 12:50:00,64.9,60.6,29.84,WNW,287,7.0,8.0,86,0.00,,,0.01,Wunderground v.1.15,2013-04-19 16:50:00,
2013-04-19 12:55:00,65.3,60.7,29.84,WSW,253,5.0,8.0,85,0.00,,,0.01,Wunderground v.1.15,2013-04-19 16:55:00,
2013-04-19 13:00:00,65.7,60.7,29.84,WNW,292,5.0,8.0,84,0.00,,,0.01,Wunderground v.1.15,2013-04-19 17:00:00,
2013-04-19 13:10:00,65.7,60.4,29.83,SW,234,6.0,14.0,83,0.00,,,0.01,Wunderground v.1.15,2013-04-19 17:10:00,
2013-04-19 13:20:00,65.9,60.6,29.82,SW,232,5.0,5.0,83,0.00,,,0.01,Wunderground v.1.15,2013-04-19 17:20:00,
2013-04-19 13:25:00,66.0,60.7,29.82,WNW,302,6.0,6.0,83,0.00,,,0.01,Wunderground v.1.15,2013-04-19 17:25:00,
2013-04-19 13:30:00,66.1,60.4,29.82,WSW,242,5.0,8.0,82,0.00,,,0.01,Wunderground v.1.15,2013-04-19 17:30:00,
2013-04-19 13:35:00,66.3,60.6,29.81,WNW,299,5.0,8.0,82,0.00,,,0.01,Wunderground v.1.15,2013-04-19 17:35:00,
2013-04-19 13:40:00,66.5,60.5,29.81,SW,228,5.0,5.0,81,0.00,,,0.01,Wunderground v.1.15,2013-04-19 17:40:00,
2013-04-19 13:45:00,66.6,60.6,29.81,SSW,203,4.0,8.0,81,0.00,,,0.01,Wunderground v.1.15,2013-04-19 17:45:00,
2013-04-19 13:50:00,66.5,60.5,29.81,SSW,208,6.0,6.0,81,0.00,,,0.01,Wunderground v.1.15,2013-04-19 17:50:00,
2013-04-19 13:55:00,66.1,60.8,29.81,SSW,210,7.0,8.0,83,0.00,,,0.01,Wunderground v.1.15,2013-04-19 17:55:00,
2013-04-19 14:05:00,64.9,60.9,29.81,West,268,5.0,8.0,87,0.00,,,0.02,Wunderground v.1.15,2013-04-19 18:05:00,
2013-04-19 14:10:00,64.8,60.8,29.81,WNW,289,5.0,5.0,87,0.00,,,0.02,Wunderground v.1.15,2013-04-19 18:10:00,
2013-04-19 14:15:00,64.8,61.2,29.81,SW,225,4.0,8.0,88,0.00,,,0.02,Wunderground v.1.15,2013-04-19 18:15:00,
2013-04-19 14:20:00,65.4,61.8,29.81,West,267,3.0,3.0,88,0.00,,,0.02,Wunderground v.1.15,2013-04-19 18:20:00,
2013-04-19 14:25:00,66.4,62.1,29.80,West,272,4.0,4.0,86,0.00,,,0.02,Wunderground v.1.15,2013-04-19 18:25:00,
2013-04-19 14:30:00,67.0,61.7,29.80,WNW,288,5.0,5.0,83,0.00,,,0.02,Wunderground v.1.15,2013-04-19 18:30:00,
2013-04-19 14:35:00,67.6,62.3,29.80,WSW,257,5.0,7.0,83,0.00,,,0.02,Wunderground v.1.15,2013-04-19 18:35:00,
2013-04-19 14:40:00,68.2,62.8,29.79,SW,223,6.0,8.0,83,0.00,,,0.02,Wunderground v.1.15,2013-04-19 18:40:00,
2013-04-19 14:50:00,69.9,62.4,29.79,WSW,258,7.0,11.0,77,0.00,,,0.02,Wunderground v.1.15,2013-04-19 18:50:00,
2013-04-19 14:55:00,69.8,61.9,29.78,WSW,251,6.0,11.0,76,0.00,,,0.02,Wunderground v.1.15,2013-04-19 18:55:00,
2013-04-19 15:05:00,69.2,62.0,29.77,WSW,240,6.0,9.0,78,0.00,,,0.02,Wunderground v.1.15,2013-04-19 19:05:00,
2013-04-19 15:10:00,69.0,61.9,29.77,WNW,296,6.0,6.0,78,0.00,,,0.02,Wunderground v.1.15,2013-04-19 19:10:00,
2013-04-19 15:15:00,69.3,62.1,29.77,WSW,244,6.0,8.0,78,0.00,,,0.02,Wunderground v.1.15,2013-04-19 19:15:00,
2013-04-19 15:25:00,68.5,61.7,29.76,WNW,291,8.0,8.0,79,0.00,,,0.02,Wunderground v.1.15,2013-04-19 19:25:00,
2013-04-19 15:30:00,68.2,61.8,29.76,SW,223,7.0,10.0,80,0.00,,,0.02,Wunderground v.1.15,2013-04-19 19:30:00,
2013-04-19 15:40:00,67.7,61.7,29.75,WNW,291,6.0,6.0,81,0.00,,,0.02,Wunderground v.1.15,2013-04-19 19:40:00,
2013-04-19 15:45:00,67.6,61.6,29.75,West,265,7.0,8.0,81,0.00,,,0.02,Wunderground v.1.15,2013-04-19 19:45:00,
2013-04-19 15:50:00,67.7,62.0,29.75,West,260,6.0,8.0,82,0.00,,,0.02,Wunderground v.1.15,2013-04-19 19:50:00,
2013-04-19 15:55:00,67.8,62.1,29.74,West,281,5.0,8.0,82,0.00,,,0.02,Wunderground v.1.15,2013-04-19 19:55:00,
2013-04-19 16:00:00,67.8,62.1,29.74,WSW,254,7.0,9.0,82,0.00,,,0.02,Wunderground v.1.15,2013-04-19 20:00:00,
2013-04-19 16:10:00,67.4,62.1,29.73,SSW,196,6.0,8.0,83,0.00,,,0.02,Wunderground v.1.15,2013-04-19 20:10:00,
2013-04-19 16:15:00,67.2,62.2,29.71,SW,216,6.0,10.0,84,0.00,,,0.02,Wunderground v.1.15,2013-04-19 20:15:00,
2013-04-19 16:20:00,67.0,62.0,29.70,WSW,239,7.0,8.0,84,0.00,,,0.02,Wunderground v.1.15,2013-04-19 20:20:00,
2013-04-19 16:30:00,67.1,61.8,29.70,WSW,258,7.0,7.0,83,0.00,,,0.02,Wunderground v.1.15,2013-04-19 20:30:00,
2013-04-19 16:35:00,67.7,62.3,29.69,SW,227,6.0,8.0,83,0.00,,,0.02,Wunderground v.1.15,2013-04-19 20:35:00,
2013-04-19 16:40:00,67.6,61.6,29.70,SW,225,6.0,9.0,81,0.00,,,0.02,Wunderground v.1.15,2013-04-19 20:40:00,
2013-04-19 16:45:00,67.5,61.8,29.69,SW,232,7.0,9.0,82,0.00,,,0.02,Wunderground v.1.15,2013-04-19 20:45:00,
2013-04-19 16:50:00,67.5,61.8,29.69,SW,227,7.0,11.0,82,0.00,,,0.02,Wunderground v.1.15,2013-04-19 20:50:00,
2013-04-19 16:55:00,67.3,61.6,29.69,SSW,213,6.0,11.0,82,0.00,,,0.02,Wunderground v.1.15,2013-04-19 20:55:00,
2013-04-19 17:00:00,66.9,61.2,29.69,SSW,204,6.0,8.0,82,0.00,,,0.02,Wunderground v.1.15,2013-04-19 21:00:00,
2013-04-19 17:10:00,66.0,61.0,29.69,NW,309,7.0,15.0,84,0.00,,,0.02,Wunderground v.1.15,2013-04-19 21:10:00,
2013-04-19 17:20:00,65.3,60.7,29.68,SW,221,7.0,7.0,85,0.00,,,0.02,Wunderground v.1.15,2013-04-19 21:20:00,
2013-04-19 17:25:00,65.2,60.6,29.69,SSW,207,6.0,8.0,85,0.00,,,0.02,Wunderground v.1.15,2013-04-19 21:25:00,
2013-04-19 17:30:00,65.1,60.8,29.69,SW,216,6.0,6.0,86,0.00,,,0.02,Wunderground v.1.15,2013-04-19 21:30:00,
2013-04-19 17:35:00,65.0,60.7,29.68,SSW,209,7.0,8.0,86,0.00,,,0.02,Wunderground v.1.15,2013-04-19 21:35:00,
2013-04-19 17:45:00,64.7,60.7,29.68,SW,218,6.0,8.0,87,0.00,,,0.02,Wunderground v.1.15,2013-04-19 21:45:00,
2013-04-19 17:55:00,64.3,60.7,29.67,SSW,202,6.0,8.0,88,0.00,,,0.02,Wunderground v.1.15,2013-04-19 21:55:00,
2013-04-19 18:00:00,64.0,60.7,29.67,SW,230,7.0,9.0,89,0.00,,,0.02,Wunderground v.1.15,2013-04-19 22:00:00,
2013-04-19 18:05:00,63.6,60.6,29.68,SSW,203,8.0,9.0,90,0.00,,,0.02,Wunderground v.1.15,2013-04-19 22:05:00,
2013-04-19 18:10:00,63.5,60.5,29.68,SW,228,8.0,9.0,90,0.00,,,0.02,Wunderground v.1.15,2013-04-19 22:10:00,
2013-04-19 18:15:00,63.4,60.4,29.68,SW,227,6.0,9.0,90,0.00,,,0.02,Wunderground v.1.15,2013-04-19 22:15:00,
2013-04-19 18:20:00,63.4,60.4,29.68,SSW,198,6.0,6.0,90,0.00,,,0.02,Wunderground v.1.15,2013-04-19 22:20:00,
2013-04-19 18:25:00,63.3,60.3,29.68,WSW,238,6.0,8.0,90,0.00,,,0.02,Wunderground v.1.15,2013-04-19 22:25:00,
2013-04-19 18:30:00,63.2,60.2,29.68,West,278,6.0,6.0,90,0.00,,,0.02,Wunderground v.1.15,2013-04-19 22:30:00,
2013-04-19 18:35:00,63.2,60.2,29.68,West,264,5.0,8.0,90,0.00,,,0.02,Wunderground v.1.15,2013-04-19 22:35:00,
2013-04-19 18:45:00,62.9,60.2,29.68,WNW,293,7.0,11.0,91,0.00,,,0.02,Wunderground v.1.15,2013-04-19 22:45:00,
2013-04-19 18:50:00,62.7,60.0,29.68,SSW,207,8.0,8.0,91,0.00,,,0.02,Wunderground v.1.15,2013-04-19 22:50:00,
2013-04-19 18:55:00,62.6,59.9,29.68,WSW,256,8.0,9.0,91,0.00,,,0.02,Wunderground v.1.15,2013-04-19 22:55:00,
2013-04-19 19:00:00,62.6,59.9,29.68,West,271,7.0,7.0,91,0.00,,,0.02,Wunderground v.1.15,2013-04-19 23:00:00,
2013-04-19 19:05:00,62.5,59.8,29.68,SW,233,7.0,10.0,91,0.00,,,0.02,Wunderground v.1.15,2013-04-19 23:05:00,
2013-04-19 19:10:00,62.5,59.8,29.68,WSW,238,8.0,8.0,91,0.00,,,0.02,Wunderground v.1.15,2013-04-19 23:10:00,
2013-04-19 19:15:00,62.4,59.7,29.67,SW,218,7.0,11.0,91,0.00,,,0.02,Wunderground v.1.15,2013-04-19 23:15:00,
2013-04-19 19:25:00,62.5,59.8,29.67,SW,225,7.0,11.0,91,0.00,,,0.02,Wunderground v.1.15,2013-04-19 23:25:00,
2013-04-19 19:30:00,62.5,59.8,29.67,West,264,8.0,8.0,91,0.00,,,0.02,Wunderground v.1.15,2013-04-19 23:30:00,
2013-04-19 19:40:00,62.4,59.7,29.66,SSW,210,6.0,8.0,91,0.00,,,0.02,Wunderground v.1.15,2013-04-19 23:40:00,
2013-04-19 19:45:00,62.5,60.1,29.65,WSW,256,7.0,8.0,92,0.00,,,0.02,Wunderground v.1.15,2013-04-19 23:45:00,
2013-04-19 19:50:00,62.5,59.8,29.66,WNW,290,7.0,7.0,91,0.00,,,0.02,Wunderground v.1.15,2013-04-19 23:50:00,
2013-04-19 19:55:00,62.5,60.1,29.66,SW,229,6.0,8.0,92,0.00,,,0.02,Wunderground v.1.15,2013-04-19 23:55:00,
2013-04-19 20:00:00,62.6,60.2,29.65,WSW,246,7.0,7.0,92,0.00,,,0.02,Wunderground v.1.15,2013-04-20 00:00:00,
2013-04-19 20:05:00,62.6,60.2,29.65,SW,225,8.0,16.0,92,0.00,,,0.02,Wunderground v.1.15,2013-04-20 00:05:00,
2013-04-19 20:10:00,62.7,60.3,29.65,WSW,254,8.0,8.0,92,0.00,,,0.02,Wunderground v.1.15,2013-04-20 00:10:00,
2013-04-19 20:20:00,62.9,60.5,29.65,SW,217,7.0,7.0,92,0.00,,,0.02,Wunderground v.1.15,2013-04-20 00:20:00,
2013-04-19 20:25:00,63.1,60.7,29.64,SSW,202,8.0,8.0,92,0.00,,,0.02,Wunderground v.1.15,2013-04-20 00:25:00,
2013-04-19 20:30:00,63.2,60.5,29.64,West,261,9.0,10.0,91,0.00,,,0.02,Wunderground v.1.15,2013-04-20 00:30:00,
2013-04-19 20:35:00,63.4,60.7,29.65,West,263,8.0,10.0,91,0.00,,,0.02,Wunderground v.1.15,2013-04-20 00:35:00,
2013-04-19 20:45:00,63.6,60.9,29.64,WSW,251,7.0,8.0,91,0.00,,,0.02,Wunderground v.1.15,2013-04-20 00:45:00,
2013-04-19 20:50:00,63.8,61.1,29.64,SW,223,7.0,8.0,91,0.00,,,0.02,Wunderground v.1.15,2013-04-20 00:50:00,
2013-04-19 20:55:00,63.9,61.2,29.64,SW,230,7.0,10.0,91,0.00,,,0.02,Wunderground v.1.15,2013-04-20 00:55:00,
2013-04-19 21:05:00,64.1,61.4,29.64,SW,230,8.0,8.0,91,0.00,,,0.02,Wunderground v.1.15,2013-04-20 01:05:00,
2013-04-19 21:10:00,64.2,61.2,29.64,WSW,240,8.0,8.0,90,0.00,,,0.02,Wunderground v.1.15,2013-04-20 01:10:00,
2013-04-19 21:15:00,64.3,61.3,29.64,SW,226,9.0,9.0,90,0.00,,,0.02,Wunderground v.1.15,2013-04-20 01:15:00,
2013-04-19 21:20:00,64.2,61.2,29.64,NW,306,9.0,9.0,90,0.00,,,0.02,Wunderground v.1.15,2013-04-20 01:20:00,
2013-04-19 21:25:00,64.2,61.2,29.64,SW,218,8.0,9.0,90,0.00,,,0.02,Wunderground v.1.15,2013-04-20 01:25:00,
2013-04-19 21:30:00,64.2,61.5,29.63,WSW,250,9.0,10.0,91,0.00,,,0.02,Wunderground v.1.15,2013-04-20 01:30:00,
2013-04-19 21:35:00,64.2,61.5,29.64,WSW,246,9.0,10.0,91,0.00,,,0.02,Wunderground v.1.15,2013-04-20 01:35:00,
2013-04-19 21:40:00,64.2,61.5,29.64,WSW,246,9.0,9.0,91,0.00,,,0.02,Wunderground v.1.15,2013-04-20 01:40:00,
2013-04-19 21:50:00,64.1,61.4,29.64,West,281,7.0,11.0,91,0.00,,,0.02,Wunderground v.1.15,2013-04-20 01:50:00,
2013-04-19 21:55:00,64.1,61.4,29.64,West,271,8.0,11.0,91,0.00,,,0.02,Wunderground v.1.15,2013-04-20 01:55:00,
2013-04-19 22:00:00,64.1,61.4,29.64,WSW,257,9.0,9.0,91,0.00,,,0.02,Wunderground v.1.15,2013-04-20 02:00:00,
2013-04-19 22:05:00,64.0,61.3,29.64,WNW,286,9.0,11.0,91,0.00,,,0.02,Wunderground v.1.15,2013-04-20 02:05:00,
2013-04-19 23:35:00,60.3,59.7,29.67,WNW,301,2.0,4.0,98,0.09,,,0.40,Wunderground v.1.15,2013-04-20 03:35:00,
2013-04-19 23:40:00,60.2,59.6,29.66,NW,315,1.0,1.0,98,0.07,,,0.41,Wunderground v.1.15,2013-04-20 03:40:00,
2013-04-19 23:50:00,59.9,59.3,29.64,WSW,254,1.0,8.0,98,0.06,,,0.42,Wunderground v.1.15,2013-04-20 03:50:00,
2013-04-19 23:55:00,59.7,59.1,29.64,NNW,333,1.0,8.0,98,0.06,,,0.42,Wunderground v.1.15,2013-04-20 03:55:00,